LiveATC.Net - Listen to live air traffic control over the Internet! Contact LiveATC.net for advertising information


ICAO: KILG  IATA: ILG   Airport: New Castle Airport
City: Wilmington   State/Province: Delaware
Country: United States   Continent: North America
KILG METAR Weather: KILG 080651Z AUTO 01010KT 10SM CLR 03/M04 A2978 RMK AO2 SLP085 T00331044
KILG Flight Activity (FlightAware)
KILG Airport Info   (AirNav) (iFlightPlanner)
KILG VFR Sectional Chart   (iFlightPlanner) 
KILG IFR Low Chart   (iFlightPlanner) 
KILG Tower
Feed Status: DOWN
Last heard on: 2015-12-07 21:09:03 (62 days 10 hours 51 minutes ago)
KILG Tower Audio Archives
FacilityFrequency
Wilmington Tower126.000


NOTICE

Unauthorized use prohibited. See LiveATC.net Terms of Service


Find LiveATC Audio Streams


Airport/ARTCC Code

Frequency
(e.g., 124.400, 128.75)
Site-wide search

Browse LiveATC Feeds
LiveATC Coverage Map
Top 50 LiveATC Feeds
Bad Weather Areas

LiveATC FAQ
Offer a LiveATC Feed
Contact LiveATC.net
Press Inquiries

LiveATC on iPhone
LiveATC on Android

Windows Phone
Windows 8/10

LiveATC Mobile
(Mobile browser)

ATC Audio Archives
Interesting Recordings

LiveATC Forums


Home Page
About LiveATC.net
Make a Donation
LiveATC Store

Terms of Use
Privacy Policy

Canadian Air Freqs

AIRMETs/SIGMETs

FAA Airport Status
Nat'l Airspace Status
Arrival Demand Charts


Server Software By:
Icecast.org
Liquidsoap

Please make a donation to help us keep growing!